Time;durP1;ratioP1;P1;durP2;ratioP2;P2;SDS_P1;SDS_P2;PMS_P1;PMS_P2;Temp;Humidity;BMP_temperature;BMP_pressure;BME280_temperature;BME280_humidity;BME280_pressure;Samples;Min_cycle;Max_cycle;Signal;HPM_P1;HPM_P2
2022/05/11 00:02:51;;;;;;;10.28;5.03;;;;;;;;;;4400756;81;28526;-79
2022/05/11 00:08:55;;;;;;;9.80;5.50;;;;;;;;;;4369477;81;28540;-79
2022/05/11 00:14:56;;;;;;;9.08;4.78;;;;;;;;;;4411028;79;28454;-79
2022/05/11 00:20:57;;;;;;;8.05;4.50;;;;;;;;;;4425539;79;28486;-78
2022/05/11 00:27:00;;;;;;;9.30;4.80;;;;;;;;;;4380002;81;28541;-79
2022/05/11 00:33:01;;;;;;;10.72;5.30;;;;;;;;;;4331718;82;28503;-78
2022/05/11 00:39:03;;;;;;;9.65;5.10;;;;;;;;;;4389479;79;28499;-77
2022/05/11 00:45:05;;;;;;;11.57;5.80;;;;;;;;;;4369313;79;28485;-78
2022/05/11 00:51:06;;;;;;;8.28;4.87;;;;;;;;;;4355185;80;28561;-77
2022/05/11 00:57:09;;;;;;;10.58;5.15;;;;;;;;;;4373361;79;28543;-78
2022/05/11 01:03:12;;;;;;;10.40;4.87;;;;;;;;;;4346276;79;28491;-77
2022/05/11 01:09:13;;;;;;;9.83;4.30;;;;;;;;;;4349966;80;28474;-79
2022/05/11 01:15:15;;;;;;;8.50;4.92;;;;;;;;;;4358192;80;28496;-78
2022/05/11 01:21:16;;;;;;;10.75;5.10;;;;;;;;;;4375094;81;28579;-77
2022/05/11 01:27:22;;;;;;;12.45;5.10;;;;;;;;;;4357298;81;28934;-77
2022/05/11 01:33:23;;;;;;;8.73;4.97;;;;;;;;;;4354007;80;28537;-77
2022/05/11 01:39:24;;;;;;;14.23;5.67;;;;;;;;;;4353766;82;28474;-77
2022/05/11 01:45:25;;;;;;;9.90;4.90;;;;;;;;;;4335543;80;28591;-79
2022/05/11 01:51:27;;;;;;;9.25;4.60;;;;;;;;;;4419626;79;28464;-79
2022/05/11 01:57:28;;;;;;;9.38;4.72;;;;;;;;;;4352882;82;28570;-79
2022/05/11 02:03:29;;;;;;;9.15;5.10;;;;;;;;;;4331461;82;28473;-79
2022/05/11 02:09:30;;;;;;;10.35;5.42;;;;;;;;;;4280047;83;28535;-79
2022/05/11 02:15:31;;;;;;;10.20;5.58;;;;;;;;;;4330082;79;28501;-78
2022/05/11 02:21:32;;;;;;;9.33;5.17;;;;;;;;;;4479499;79;28507;-78
2022/05/11 02:27:33;;;;;;;10.43;5.30;;;;;;;;;;4479292;79;28498;-78
2022/05/11 02:33:35;;;;;;;10.13;4.67;;;;;;;;;;4386986;79;28513;-78
2022/05/11 02:39:36;;;;;;;8.18;3.95;;;;;;;;;;4362288;81;28551;-78
2022/05/11 02:45:39;;;;;;;9.33;4.55;;;;;;;;;;4341219;80;28651;-77
2022/05/11 02:51:40;;;;;;;11.63;5.83;;;;;;;;;;4244275;81;28494;-79
2022/05/11 02:57:42;;;;;;;11.88;4.95;;;;;;;;;;4315770;81;28495;-77
2022/05/11 03:03:43;;;;;;;10.43;4.60;;;;;;;;;;4304976;80;28580;-77
2022/05/11 03:09:44;;;;;;;9.50;4.85;;;;;;;;;;4339089;82;28539;-77
2022/05/11 03:15:45;;;;;;;9.03;4.47;;;;;;;;;;4338510;82;28479;-77
2022/05/11 03:21:47;;;;;;;11.93;4.97;;;;;;;;;;4339119;82;28554;-77
2022/05/11 03:27:49;;;;;;;5.70;3.83;;;;;;;;;;4317108;81;28482;-77
2022/05/11 03:40:10;;;;;;;8.85;5.12;;;;;;;;;;4353789;80;28530;-77
2022/05/11 03:46:11;;;;;;;10.68;5.47;;;;;;;;;;4343896;80;28506;-76
2022/05/11 03:52:16;;;;;;;13.65;5.62;;;;;;;;;;4345383;80;28579;-77
2022/05/11 03:58:15;;;;;;;12.55;5.35;;;;;;;;;;4337437;80;28502;-77
2022/05/11 04:04:16;;;;;;;12.37;5.28;;;;;;;;;;4316020;80;28802;-76
2022/05/11 04:10:18;;;;;;;12.75;5.40;;;;;;;;;;4326457;80;28536;-76
2022/05/11 04:16:19;;;;;;;12.37;5.45;;;;;;;;;;4327660;80;28466;-76
2022/05/11 04:22:20;;;;;;;11.38;5.53;;;;;;;;;;4343510;80;28510;-77
2022/05/11 04:28:32;;;;;;;12.00;6.15;;;;;;;;;;4251287;81;28582;-77
2022/05/11 04:34:28;;;;;;;10.35;6.00;;;;;;;;;;4233864;82;28604;-76
2022/05/11 04:40:29;;;;;;;16.85;6.25;;;;;;;;;;4218496;82;28500;-76
2022/05/11 04:46:33;;;;;;;13.43;6.60;;;;;;;;;;4344739;80;28549;-77
2022/05/11 04:52:33;;;;;;;12.68;6.53;;;;;;;;;;4337077;80;28490;-77
2022/05/11 04:58:34;;;;;;;13.28;6.22;;;;;;;;;;4322999;80;28542;-77
2022/05/11 05:04:35;;;;;;;13.50;6.47;;;;;;;;;;4355934;80;28567;-77
2022/05/11 05:10:36;;;;;;;12.30;6.50;;;;;;;;;;4298821;80;28546;-77
2022/05/11 05:16:37;;;;;;;14.68;6.53;;;;;;;;;;4342826;80;28521;-76
2022/05/11 05:22:41;;;;;;;17.00;6.50;;;;;;;;;;4370312;80;28569;-74
2022/05/11 05:35:02;;;;;;;14.47;6.20;;;;;;;;;;4260382;82;28539;-75
2022/05/11 05:41:03;;;;;;;15.48;6.05;;;;;;;;;;4341194;80;28542;-76
2022/05/11 05:47:04;;;;;;;9.23;5.03;;;;;;;;;;4332583;80;28523;-76
2022/05/11 05:53:05;;;;;;;13.10;5.28;;;;;;;;;;4303006;80;28609;-78
2022/05/11 05:59:10;;;;;;;14.45;4.85;;;;;;;;;;4275355;80;28480;-77
2022/05/11 06:05:13;;;;;;;12.75;4.62;;;;;;;;;;4292239;81;28500;-77
2022/05/11 06:11:13;;;;;;;14.10;4.80;;;;;;;;;;4276114;81;28553;-77
2022/05/11 06:17:16;;;;;;;7.90;4.30;;;;;;;;;;4356971;81;28955;-76
2022/05/11 06:23:20;;;;;;;15.98;5.55;;;;;;;;;;4425283;80;28489;-77
2022/05/11 06:29:21;;;;;;;10.30;4.83;;;;;;;;;;4343046;81;28508;-76
2022/05/11 06:35:22;;;;;;;11.60;4.58;;;;;;;;;;4367240;80;28466;-75
2022/05/11 06:41:25;;;;;;;8.73;3.87;;;;;;;;;;4381097;80;28458;-75
2022/05/11 06:47:26;;;;;;;6.95;3.75;;;;;;;;;;4423496;80;28589;-77
2022/05/11 06:53:27;;;;;;;9.45;4.75;;;;;;;;;;4297156;82;28542;-78
2022/05/11 06:59:30;;;;;;;7.75;4.30;;;;;;;;;;4279107;82;28508;-76
2022/05/11 07:05:35;;;;;;;15.15;4.30;;;;;;;;;;4266426;83;28524;-78
2022/05/11 07:17:56;;;;;;;6.30;3.98;;;;;;;;;;4423955;80;28521;-77
2022/05/11 07:23:57;;;;;;;6.87;3.52;;;;;;;;;;4413144;80;28500;-77
2022/05/11 07:29:58;;;;;;;6.80;3.77;;;;;;;;;;4427884;80;28460;-76
2022/05/11 07:35:59;;;;;;;9.40;3.83;;;;;;;;;;4422777;79;28573;-76
2022/05/11 07:42:00;;;;;;;8.65;3.95;;;;;;;;;;4436797;79;28484;-77
2022/05/11 07:48:04;;;;;;;7.20;3.85;;;;;;;;;;4378652;80;28567;-79
2022/05/11 07:54:05;;;;;;;6.45;3.77;;;;;;;;;;4314836;82;28534;-78
2022/05/11 08:00:08;;;;;;;6.12;4.10;;;;;;;;;;4276441;81;28580;-79
2022/05/11 08:06:09;;;;;;;7.22;3.98;;;;;;;;;;4344073;80;28470;-81
2022/05/11 08:12:10;;;;;;;6.33;3.80;;;;;;;;;;4348441;79;28459;-81
2022/05/11 08:18:13;;;;;;;6.67;3.55;;;;;;;;;;4343216;79;28498;-77
2022/05/11 08:24:14;;;;;;;6.50;3.72;;;;;;;;;;4322664;79;28464;-77
2022/05/11 08:36:35;;;;;;;6.03;3.98;;;;;;;;;;4323257;79;28461;-76
2022/05/11 08:42:36;;;;;;;5.53;3.47;;;;;;;;;;4334452;79;28550;-77
2022/05/11 08:48:47;;;;;;;5.97;3.72;;;;;;;;;;4313581;81;28595;-78
2022/05/11 08:54:49;;;;;;;6.72;3.33;;;;;;;;;;4354159;80;28539;-77
2022/05/11 09:00:52;;;;;;;4.87;2.67;;;;;;;;;;4302106;81;28460;-78
2022/05/11 09:06:53;;;;;;;4.30;3.22;;;;;;;;;;4342331;81;28494;-79
2022/05/11 09:12:55;;;;;;;10.60;3.65;;;;;;;;;;4336752;80;28542;-80
2022/05/11 09:18:56;;;;;;;6.35;3.75;;;;;;;;;;4332480;80;28535;-77
2022/05/11 09:24:59;;;;;;;7.25;3.40;;;;;;;;;;4327852;80;28576;-77
2022/05/11 09:31:05;;;;;;;4.67;3.40;;;;;;;;;;4324167;80;28555;-77
2022/05/11 09:37:25;;;;;;;5.45;3.42;;;;;;;;;;4314925;80;28579;-76
2022/05/11 09:43:31;;;;;;;6.62;3.00;;;;;;;;;;4312772;80;28565;-77
2022/05/11 09:49:35;;;;;;;;;;;;;;;;;;4313597;80;29091;-77
2022/05/11 09:55:34;;;;;;;5.45;3.52;;;;;;;;;;4325429;80;20245;-76
2022/05/11 10:01:35;;;;;;;7.28;3.22;;;;;;;;;;4298084;80;28525;-76
2022/05/11 10:07:47;;;;;;;5.35;3.22;;;;;;;;;;4336216;81;28540;-77
2022/05/11 10:13:59;;;;;;;6.08;3.30;;;;;;;;;;4316530;80;28513;-77
2022/05/11 10:26:21;;;;;;;8.30;3.33;;;;;;;;;;4328188;80;28952;-74
2022/05/11 10:32:34;;;;;;;4.83;3.15;;;;;;;;;;4332007;80;28539;-75
2022/05/11 10:38:36;;;;;;;5.00;3.20;;;;;;;;;;4302199;80;28472;-78
2022/05/11 10:44:54;;;;;;;3.33;3.02;;;;;;;;;;4351178;79;28562;-76
2022/05/11 10:50:57;;;;;;;6.47;4.03;;;;;;;;;;4345361;79;28502;-77
2022/05/11 10:57:03;;;;;;;4.08;3.55;;;;;;;;;;4345236;79;28512;-78
2022/05/11 11:03:23;;;;;;;6.60;3.72;;;;;;;;;;4350642;80;28474;-79
2022/05/11 11:09:26;;;;;;;6.90;3.75;;;;;;;;;;4334363;80;28485;-76
2022/05/11 11:15:29;;;;;;;4.62;3.40;;;;;;;;;;4349901;80;28502;-76
2022/05/11 11:21:31;;;;;;;4.28;3.42;;;;;;;;;;4331259;79;28515;-79
2022/05/11 11:27:49;;;;;;;5.75;3.85;;;;;;;;;;4345879;78;28500;-79
2022/05/11 11:33:54;;;;;;;4.45;3.25;;;;;;;;;;4338447;79;28537;-82
2022/05/11 11:40:15;;;;;;;6.20;3.10;;;;;;;;;;4357299;79;28537;-78
2022/05/11 11:46:33;;;;;;;5.83;3.33;;;;;;;;;;4339358;79;28552;-78
2022/05/11 11:52:36;;;;;;;5.78;3.33;;;;;;;;;;4315386;80;28486;-78
2022/05/11 11:58:37;;;;;;;4.78;3.27;;;;;;;;;;4285236;80;28569;-78
2022/05/11 12:04:40;;;;;;;6.12;3.10;;;;;;;;;;4328983;80;28521;-78
2022/05/11 12:17:13;;;;;;;4.67;2.95;;;;;;;;;;4321018;80;28502;-78
2022/05/11 12:23:20;;;;;;;3.65;3.10;;;;;;;;;;4283353;80;37934;-79
2022/05/11 12:35:45;;;;;;;4.80;2.77;;;;;;;;;;4332834;80;28467;-79
2022/05/11 12:41:43;;;;;;;6.53;3.33;;;;;;;;;;4311333;80;28535;-80
2022/05/11 12:47:50;;;;;;;4.87;3.00;;;;;;;;;;4335346;79;28528;-77
2022/05/11 12:53:53;;;;;;;3.30;2.60;;;;;;;;;;4353617;79;28485;-77
2022/05/11 12:59:54;;;;;;;3.45;2.58;;;;;;;;;;4356380;79;28527;-75
2022/05/11 13:05:57;;;;;;;5.72;3.00;;;;;;;;;;4339381;79;28594;-74
2022/05/11 13:11:59;;;;;;;3.92;2.58;;;;;;;;;;4351241;79;28533;-77
2022/05/11 13:18:00;;;;;;;3.20;2.42;;;;;;;;;;4373065;80;28521;-79
2022/05/11 13:24:03;;;;;;;3.35;2.40;;;;;;;;;;4352563;79;28521;-75
2022/05/11 13:30:06;;;;;;;4.03;2.70;;;;;;;;;;4368210;79;28598;-78
2022/05/11 13:36:11;;;;;;;4.92;2.52;;;;;;;;;;4353566;79;28570;-77
2022/05/11 13:42:23;;;;;;;7.30;2.67;;;;;;;;;;4363764;79;28469;-76
2022/05/11 13:48:29;;;;;;;2.62;2.40;;;;;;;;;;4348957;80;28585;-78
2022/05/11 13:54:37;;;;;;;10.20;3.65;;;;;;;;;;4334968;80;28501;-76
2022/05/11 14:00:39;;;;;;;5.55;2.85;;;;;;;;;;4324819;80;28502;-76
2022/05/11 14:06:57;;;;;;;4.65;2.98;;;;;;;;;;4332130;80;28493;-77
2022/05/11 14:12:58;;;;;;;4.83;2.67;;;;;;;;;;4353186;80;28511;-75
2022/05/11 14:18:59;;;;;;;4.58;2.50;;;;;;;;;;4347201;80;28526;-79
2022/05/11 14:25:01;;;;;;;3.65;2.72;;;;;;;;;;4310778;80;28544;-75
2022/05/11 14:31:03;;;;;;;4.70;2.70;;;;;;;;;;4362306;80;28531;-79
2022/05/11 14:37:04;;;;;;;4.53;2.87;;;;;;;;;;4364005;80;28462;-75
2022/05/11 14:43:05;;;;;;;4.22;2.70;;;;;;;;;;4371369;80;28585;-76
2022/05/11 14:49:08;;;;;;;4.97;2.58;;;;;;;;;;4339677;80;28561;-76
2022/05/11 14:55:09;;;;;;;8.08;2.67;;;;;;;;;;4356952;80;28498;-76
2022/05/11 15:07:32;;;;;;;5.75;2.80;;;;;;;;;;4331187;80;28565;-76
2022/05/11 15:13:35;;;;;;;4.85;3.02;;;;;;;;;;4336893;80;28553;-77
2022/05/11 15:19:35;;;;;;;4.47;2.62;;;;;;;;;;4316787;80;28479;-75
2022/05/11 15:25:39;;;;;;;4.55;2.58;;;;;;;;;;4345027;80;28707;-76
2022/05/11 15:31:41;;;;;;;3.60;2.95;;;;;;;;;;4350328;80;28553;-76
2022/05/11 15:37:42;;;;;;;6.92;2.72;;;;;;;;;;4356846;80;28494;-76
2022/05/11 15:43:44;;;;;;;4.80;2.90;;;;;;;;;;4350809;80;28529;-75
2022/05/11 15:49:45;;;;;;;5.22;2.95;;;;;;;;;;4363589;79;28512;-77
2022/05/11 15:55:46;;;;;;;5.37;2.90;;;;;;;;;;4337682;79;28547;-75
2022/05/11 16:01:47;;;;;;;3.65;2.83;;;;;;;;;;4330926;79;28501;-75
2022/05/11 16:07:48;;;;;;;6.00;2.77;;;;;;;;;;4354891;79;28521;-74
2022/05/11 16:13:49;;;;;;;4.10;2.67;;;;;;;;;;4356790;80;28462;-76
2022/05/11 16:19:53;;;;;;;4.17;2.35;;;;;;;;;;4347640;80;28504;-77
2022/05/11 16:25:56;;;;;;;5.05;2.70;;;;;;;;;;4383938;79;28516;-77
2022/05/11 16:31:58;;;;;;;3.45;2.70;;;;;;;;;;4311394;79;28554;-78
2022/05/11 16:37:59;;;;;;;4.17;2.55;;;;;;;;;;4349604;80;28498;-76
2022/05/11 16:43:59;;;;;;;8.85;2.70;;;;;;;;;;4331568;82;28478;-76
2022/05/11 16:50:00;;;;;;;3.77;2.60;;;;;;;;;;4359379;80;28564;-76
2022/05/11 16:56:02;;;;;;;4.67;3.05;;;;;;;;;;4335217;80;28521;-76
2022/05/11 17:02:04;;;;;;;5.17;2.85;;;;;;;;;;4358519;80;28503;-76
2022/05/11 17:08:05;;;;;;;6.87;3.40;;;;;;;;;;4399884;80;28554;-76
2022/05/11 17:14:07;;;;;;;3.80;2.95;;;;;;;;;;4328842;80;28505;-76
2022/05/11 17:20:09;;;;;;;3.45;2.87;;;;;;;;;;4371465;80;28511;-76
2022/05/11 17:26:10;;;;;;;6.90;2.92;;;;;;;;;;4355108;80;28571;-76
2022/05/11 17:32:11;;;;;;;6.37;2.85;;;;;;;;;;4366132;80;28473;-76
2022/05/11 17:38:14;;;;;;;5.92;3.12;;;;;;;;;;4386639;80;28549;-76
2022/05/11 17:44:15;;;;;;;6.20;3.45;;;;;;;;;;4366033;80;28527;-76
2022/05/11 17:50:18;;;;;;;9.15;3.65;;;;;;;;;;4342944;80;28540;-76
2022/05/11 17:56:19;;;;;;;8.55;3.52;;;;;;;;;;4324575;81;28438;-76
2022/05/11 18:02:20;;;;;;;8.60;3.70;;;;;;;;;;4344529;82;28482;-76
2022/05/11 18:08:22;;;;;;;7.37;3.37;;;;;;;;;;4346968;82;28544;-76
2022/05/11 18:14:25;;;;;;;8.05;4.00;;;;;;;;;;4316051;81;28541;-76
2022/05/11 18:20:25;;;;;;;10.85;4.90;;;;;;;;;;4308376;81;28469;-76
2022/05/11 18:26:27;;;;;;;14.73;4.80;;;;;;;;;;4336850;80;28560;-77
2022/05/11 18:32:28;;;;;;;10.32;4.15;;;;;;;;;;4342891;80;28517;-75
2022/05/11 18:38:30;;;;;;;7.53;4.28;;;;;;;;;;4324550;80;28528;-74
2022/05/11 18:44:31;;;;;;;7.75;4.12;;;;;;;;;;4336662;80;28533;-75
2022/05/11 18:50:32;;;;;;;8.45;4.37;;;;;;;;;;4384956;79;28505;-75
2022/05/11 18:56:37;;;;;;;9.00;4.78;;;;;;;;;;4358637;80;28579;-74
2022/05/11 19:02:36;;;;;;;6.83;4.62;;;;;;;;;;4317473;79;28513;-76
2022/05/11 19:08:37;;;;;;;7.95;5.35;;;;;;;;;;4363554;80;28454;-78
2022/05/11 19:14:50;;;;;;;9.38;5.50;;;;;;;;;;4334778;79;28466;-76
2022/05/11 19:20:51;;;;;;;8.78;5.47;;;;;;;;;;4350775;80;28477;-76
2022/05/11 19:26:52;;;;;;;8.65;4.85;;;;;;;;;;4329406;79;28550;-78
2022/05/11 19:32:55;;;;;;;9.83;5.25;;;;;;;;;;4344513;80;28446;-77
2022/05/11 19:38:56;;;;;;;7.42;5.00;;;;;;;;;;4337252;80;28557;-76
2022/05/11 19:44:57;;;;;;;7.45;5.33;;;;;;;;;;4330156;79;28481;-77
2022/05/11 19:50:58;;;;;;;9.05;5.80;;;;;;;;;;4327977;80;28579;-76
2022/05/11 19:56:58;;;;;;;11.85;5.60;;;;;;;;;;4340749;80;28531;-76
2022/05/11 20:02:59;;;;;;;8.63;5.55;;;;;;;;;;4341821;80;28505;-76
2022/05/11 20:09:00;;;;;;;7.45;5.47;;;;;;;;;;4340541;80;28477;-78
2022/05/11 20:15:01;;;;;;;13.32;5.85;;;;;;;;;;4335589;80;28548;-79
2022/05/11 20:21:03;;;;;;;7.95;4.90;;;;;;;;;;4347180;80;28474;-77
2022/05/11 20:27:06;;;;;;;8.60;5.83;;;;;;;;;;4356796;80;28506;-78
2022/05/11 20:39:26;;;;;;;8.50;5.62;;;;;;;;;;4307529;80;28513;-79
2022/05/11 20:45:32;;;;;;;10.20;5.67;;;;;;;;;;4335591;80;28597;-79
2022/05/11 20:51:32;;;;;;;7.67;5.62;;;;;;;;;;4337589;79;28474;-78
2022/05/11 20:57:33;;;;;;;10.58;5.40;;;;;;;;;;4350506;80;28529;-78
2022/05/11 21:03:35;;;;;;;6.95;5.35;;;;;;;;;;4337884;79;28633;-78
2022/05/11 21:09:36;;;;;;;9.50;5.20;;;;;;;;;;4338110;79;28501;-78
2022/05/11 21:15:37;;;;;;;6.53;5.28;;;;;;;;;;4334708;79;28889;-79
2022/05/11 21:21:38;;;;;;;6.08;4.87;;;;;;;;;;4398523;80;28540;-78
2022/05/11 21:27:39;;;;;;;8.60;5.05;;;;;;;;;;4349691;79;28578;-79
2022/05/11 21:33:40;;;;;;;7.05;5.12;;;;;;;;;;4349783;80;28521;-78
2022/05/11 21:39:41;;;;;;;8.35;5.10;;;;;;;;;;4352181;80;28488;-77
2022/05/11 21:45:44;;;;;;;14.65;9.78;;;;;;;;;;4347827;80;28480;-77
2022/05/11 21:51:45;;;;;;;8.05;5.87;;;;;;;;;;4307571;80;28488;-78
2022/05/11 21:57:48;;;;;;;8.88;5.25;;;;;;;;;;4320314;82;28544;-77
2022/05/11 22:03:49;;;;;;;8.85;5.87;;;;;;;;;;4372740;80;28476;-78
2022/05/11 22:09:50;;;;;;;9.08;5.70;;;;;;;;;;4320288;80;28524;-78
2022/05/11 22:15:50;;;;;;;9.73;5.95;;;;;;;;;;4330444;82;28466;-78
2022/05/11 22:21:51;;;;;;;8.53;6.12;;;;;;;;;;4376037;80;28461;-77
2022/05/11 22:27:53;;;;;;;8.85;6.30;;;;;;;;;;4345956;80;28614;-79
2022/05/11 22:33:54;;;;;;;8.15;5.70;;;;;;;;;;4332388;79;28490;-78
2022/05/11 22:39:56;;;;;;;7.87;5.70;;;;;;;;;;4333388;80;28478;-79
2022/05/11 22:45:57;;;;;;;9.90;6.37;;;;;;;;;;4360273;80;28522;-78
2022/05/11 22:51:58;;;;;;;7.45;5.92;;;;;;;;;;4360326;79;28545;-78
2022/05/11 22:57:59;;;;;;;8.60;5.53;;;;;;;;;;4339831;80;28494;-78
2022/05/11 23:04:00;;;;;;;27.60;17.32;;;;;;;;;;4352627;80;28505;-80
2022/05/11 23:10:01;;;;;;;14.18;9.63;;;;;;;;;;4265671;83;28542;-78
2022/05/11 23:16:02;;;;;;;12.90;7.42;;;;;;;;;;4299308;82;28456;-78
2022/05/11 23:22:03;;;;;;;9.90;6.67;;;;;;;;;;4316387;82;28532;-78
2022/05/11 23:28:04;;;;;;;8.03;5.90;;;;;;;;;;4265954;83;28509;-78
2022/05/11 23:34:05;;;;;;;9.53;5.65;;;;;;;;;;4355705;80;28528;-78
2022/05/11 23:40:07;;;;;;;12.45;6.37;;;;;;;;;;4339785;82;28741;-78
2022/05/11 23:46:08;;;;;;;8.00;6.05;;;;;;;;;;4293092;82;28547;-78
2022/05/11 23:52:10;;;;;;;9.75;6.70;;;;;;;;;;4325355;81;28493;-78
2022/05/11 23:58:11;;;;;;;9.58;6.22;;;;;;;;;;4351432;80;28496;-78
